createdAt,value
2017-09-12T00:00:03.313Z,15.42
2017-09-12T00:01:03.622Z,15.46
2017-09-12T00:02:03.609Z,15.31
2017-09-12T00:03:03.608Z,15.41
2017-09-12T00:04:03.270Z,15.33
2017-09-12T00:05:03.302Z,15.35
2017-09-12T00:06:02.923Z,15.33
2017-09-12T00:07:03.549Z,15.36
2017-09-12T00:08:03.209Z,15.3
2017-09-12T00:09:02.876Z,15.42
2017-09-12T00:10:03.509Z,15.49
2017-09-12T00:11:03.488Z,15.38
2017-09-12T00:12:02.842Z,15.39
2017-09-12T00:13:03.148Z,15.38
2017-09-12T00:14:02.812Z,15.45
2017-09-12T00:15:03.442Z,15.48
2017-09-12T00:16:03.100Z,15.48
2017-09-12T00:17:03.095Z,15.43
2017-09-12T00:18:02.755Z,15.41
2017-09-12T00:19:02.745Z,15.39
2017-09-12T00:20:03.051Z,15.41
2017-09-12T00:21:03.359Z,15.46
2017-09-12T00:22:03.024Z,15.43
2017-09-12T00:23:03.337Z,15.41
2017-09-12T00:24:02.669Z,15.36
2017-09-12T00:25:03.307Z,15.39
2017-09-12T00:26:03.292Z,15.36
2017-09-12T00:27:02.962Z,15.39
2017-09-12T00:28:02.941Z,15.46
2017-09-12T00:29:03.251Z,15.36
2017-09-12T00:30:03.239Z,15.38
2017-09-12T00:31:02.902Z,15.36
2017-09-12T00:32:02.578Z,15.35
2017-09-12T00:33:03.222Z,15.38
2017-09-12T00:34:02.859Z,15.43
2017-09-12T00:35:02.855Z,15.39
2017-09-12T00:36:02.843Z,15.39
2017-09-12T00:37:02.508Z,15.35
2017-09-12T00:38:03.139Z,15.36
2017-09-12T00:39:02.797Z,15.43
2017-09-12T00:40:03.108Z,15.43
2017-09-12T00:41:03.094Z,15.28
2017-09-12T00:42:03.077Z,15.31
2017-09-12T00:43:02.420Z,15.35
2017-09-12T00:44:03.057Z,15.39
2017-09-12T00:45:03.122Z,15.39
2017-09-12T00:46:02.706Z,15.38
2017-09-12T00:47:02.689Z,15.39
2017-09-12T00:48:02.359Z,15.38
2017-09-12T00:49:02.984Z,15.39
2017-09-12T00:50:02.981Z,15.31
2017-09-12T00:51:02.639Z,15.41
2017-09-12T00:52:02.949Z,15.39
2017-09-12T00:53:02.613Z,15.39
2017-09-12T00:54:02.601Z,15.36
2017-09-12T00:55:02.592Z,15.38
2017-09-12T00:56:02.575Z,15.35
2017-09-12T00:57:02.238Z,15.41
2017-09-12T00:58:02.571Z,15.41
2017-09-12T00:59:02.533Z,15.41
2017-09-12T01:00:02.893Z,15.43
2017-09-12T01:01:02.505Z,15.41
2017-09-12T01:02:02.501Z,15.31
2017-09-12T01:03:02.163Z,15.36
2017-09-12T01:04:02.465Z,15.41
2017-09-12T01:05:02.134Z,15.46
2017-09-12T01:06:02.118Z,15.36
2017-09-12T01:07:02.426Z,15.36
2017-09-12T01:08:02.413Z,15.35
2017-09-12T01:09:02.399Z,15.43
2017-09-12T01:10:02.067Z,15.39
2017-09-12T01:11:02.377Z,15.33
2017-09-12T01:12:02.360Z,15.38
2017-09-12T01:13:02.347Z,15.35
2017-09-12T01:14:02.657Z,15.42
2017-09-12T01:15:02.641Z,15.41
2017-09-12T01:16:01.989Z,15.39
2017-09-12T01:17:02.298Z,15.35
2017-09-12T01:18:02.617Z,15.39
2017-09-12T01:19:02.270Z,15.36
2017-09-12T01:20:02.261Z,15.36
2017-09-12T01:21:02.239Z,15.39
2017-09-12T01:22:02.233Z,15.26
2017-09-12T01:23:02.539Z,15.31
2017-09-12T01:24:02.212Z,15.35
2017-09-12T01:25:02.198Z,15.31
2017-09-12T01:26:02.500Z,15.33
2017-09-12T01:27:02.171Z,15.38
2017-09-12T01:28:02.147Z,15.3
2017-09-12T01:29:02.464Z,15.33
2017-09-12T01:30:02.444Z,15.38
2017-09-12T01:31:02.108Z,15.39
2017-09-12T01:32:01.778Z,15.39
2017-09-12T01:33:02.084Z,15.36
2017-09-12T01:34:01.763Z,15.38
2017-09-12T01:35:02.056Z,15.41
2017-09-12T01:36:02.044Z,15.35
2017-09-12T01:37:01.711Z,15.33
2017-09-12T01:38:02.022Z,15.41
2017-09-12T01:39:02.010Z,15.38
2017-09-12T01:40:01.991Z,15.35
2017-09-12T01:41:01.658Z,15.38
2017-09-12T01:42:01.662Z,15.35
2017-09-12T01:43:01.626Z,15.33
2017-09-12T01:44:01.943Z,15.42
2017-09-12T01:45:02.252Z,15.33
2017-09-12T01:46:01.912Z,15.3
2017-09-12T01:47:01.577Z,15.39
2017-09-12T01:48:01.886Z,15.33
2017-09-12T01:49:02.201Z,15.36
2017-09-12T01:50:02.190Z,15.41
2017-09-12T01:51:01.524Z,15.42
2017-09-12T01:52:01.508Z,15.31
2017-09-12T01:53:02.141Z,15.35
2017-09-12T01:54:01.805Z,15.39
2017-09-12T01:55:01.795Z,15.33
2017-09-12T01:56:01.458Z,15.36
2017-09-12T01:57:01.768Z,15.33
2017-09-12T01:58:01.434Z,15.3
2017-09-12T01:59:01.742Z,15.35
2017-09-12T02:00:01.408Z,15.36
2017-09-12T02:01:01.762Z,15.38
2017-09-12T02:02:02.044Z,15.36
2017-09-12T02:03:01.685Z,15.33
2017-09-12T02:04:01.996Z,15.31
2017-09-12T02:05:01.666Z,15.27
2017-09-12T02:06:01.648Z,15.33
2017-09-12T02:07:01.638Z,15.23
2017-09-12T02:08:01.615Z,15.24
2017-09-12T02:09:01.290Z,15.28
2017-09-12T02:10:01.916Z,15.28
2017-09-12T02:11:01.631Z,15.3
2017-09-12T02:12:01.904Z,15.3
2017-09-12T02:13:01.891Z,15.28
2017-09-12T02:14:01.217Z,15.27
2017-09-12T02:15:01.209Z,15.26
2017-09-12T02:16:01.192Z,15.15
2017-09-12T02:17:01.181Z,15.15
2017-09-12T02:18:01.809Z,15.19
2017-09-12T02:19:01.796Z,15.21
2017-09-12T02:20:01.458Z,15.19
2017-09-12T02:21:01.450Z,15.15
2017-09-12T02:22:01.434Z,15.2
2017-09-12T02:23:01.755Z,15.23
2017-09-12T02:24:01.793Z,15.27
2017-09-12T02:25:01.071Z,15.28
2017-09-12T02:26:01.056Z,15.28
2017-09-12T02:27:01.687Z,15.24
2017-09-12T02:28:01.359Z,15.24
2017-09-12T02:29:01.337Z,15.23
2017-09-12T02:30:01.006Z,15.24
2017-09-12T02:31:01.324Z,15.28
2017-09-12T02:32:01.298Z,15.27
2017-09-12T02:33:00.963Z,15.27
2017-09-12T02:34:01.274Z,15.17
2017-09-12T02:35:01.264Z,15.23
2017-09-12T02:36:01.568Z,15.27
2017-09-12T02:37:00.913Z,15.24
2017-09-12T02:38:01.226Z,15.17
2017-09-12T02:39:01.222Z,15.24
2017-09-12T02:40:00.870Z,15.13
2017-09-12T02:41:01.193Z,15.13
2017-09-12T02:42:01.495Z,15.08
2017-09-12T02:43:01.175Z,15.19
2017-09-12T02:44:00.825Z,15.13
2017-09-12T02:45:01.135Z,15.15
2017-09-12T02:46:01.115Z,15.09
2017-09-12T02:47:01.121Z,15.08
2017-09-12T02:48:01.416Z,15.05
2017-09-12T02:49:00.750Z,14.95
2017-09-12T02:50:01.417Z,15.02
2017-09-12T02:51:00.729Z,14.99
2017-09-12T02:52:01.040Z,14.91
2017-09-12T02:53:01.022Z,14.95
2017-09-12T02:54:01.022Z,14.93
2017-09-12T02:55:01.318Z,14.87
2017-09-12T02:56:01.304Z,14.94
2017-09-12T02:57:01.287Z,14.87
2017-09-12T02:58:00.955Z,14.93
2017-09-12T02:59:00.618Z,14.93
2017-09-12T03:00:00.929Z,14.91
2017-09-12T03:01:00.917Z,14.93
2017-09-12T03:02:01.213Z,14.88
2017-09-12T03:03:01.205Z,14.87
2017-09-12T03:04:01.195Z,14.81
2017-09-12T03:05:00.856Z,14.75
2017-09-12T03:06:00.846Z,14.84
2017-09-12T03:07:00.832Z,14.84
2017-09-12T03:08:00.817Z,14.84
2017-09-12T03:09:00.482Z,14.8
2017-09-12T03:10:00.796Z,14.78
2017-09-12T03:11:01.096Z,14.78
2017-09-12T03:12:00.438Z,14.8
2017-09-12T03:13:00.753Z,14.74
2017-09-12T03:14:00.412Z,14.74
2017-09-12T03:15:00.737Z,14.74
2017-09-12T03:16:00.707Z,14.65
2017-09-12T03:17:01.015Z,14.67
2017-09-12T03:18:00.681Z,14.71
2017-09-12T03:19:00.672Z,14.62
2017-09-12T03:20:00.333Z,14.65
2017-09-12T03:21:00.641Z,14.61
2017-09-12T03:22:00.308Z,14.54
2017-09-12T03:23:00.932Z,14.49
2017-09-12T03:24:00.597Z,14.49
2017-09-12T03:25:00.586Z,14.61
2017-09-12T03:26:00.576Z,14.54
2017-09-12T03:27:00.561Z,14.56
2017-09-12T03:28:00.875Z,14.6
2017-09-12T03:29:00.548Z,14.52
2017-09-12T03:30:00.528Z,14.54
2017-09-12T03:31:00.839Z,14.49
2017-09-12T03:32:00.184Z,14.56
2017-09-12T03:33:00.480Z,14.52
2017-09-12T03:34:00.472Z,14.62
2017-09-12T03:35:00.773Z,14.57
2017-09-12T03:36:00.460Z,14.52
2017-09-12T03:37:00.104Z,14.6
2017-09-12T03:38:00.288Z,14.54
2017-09-12T03:39:00.737Z,14.57
2017-09-12T03:40:00.703Z,14.53
2017-09-12T03:41:00.044Z,14.57
2017-09-12T03:42:00.032Z,14.6
2017-09-12T03:43:00.384Z,14.52
2017-09-12T03:44:00.652Z,14.49
2017-09-12T03:44:59.993Z,14.6
2017-09-12T03:46:00.301Z,14.54
2017-09-12T03:47:00.293Z,14.62
2017-09-12T03:48:00.275Z,14.52
2017-09-12T03:49:00.585Z,14.57
2017-09-12T03:50:00.566Z,14.71
2017-09-12T03:51:00.556Z,14.57
2017-09-12T03:52:00.541Z,14.61
2017-09-12T03:53:00.265Z,14.67
2017-09-12T03:54:00.512Z,14.6
2017-09-12T03:54:59.858Z,14.62
2017-09-12T03:56:00.169Z,14.65
2017-09-12T03:56:59.837Z,14.54
2017-09-12T03:58:00.141Z,14.54
2017-09-12T03:59:00.446Z,14.56
2017-09-12T04:00:00.132Z,14.53
2017-09-12T04:01:00.123Z,14.62
2017-09-12T04:02:00.087Z,14.49
2017-09-12T04:03:00.122Z,14.56
2017-09-12T04:03:59.730Z,14.5
2017-09-12T04:05:00.081Z,14.44
2017-09-12T04:06:00.027Z,14.46
2017-09-12T04:07:00.545Z,14.46
2017-09-12T04:07:59.999Z,14.52
2017-09-12T04:08:59.688Z,14.54
2017-09-12T04:09:59.987Z,14.46
2017-09-12T04:11:00.300Z,14.5
2017-09-12T04:12:00.276Z,14.52
2017-09-12T04:12:59.942Z,14.5
2017-09-12T04:14:00.277Z,14.53
2017-09-12T04:14:59.584Z,14.56
2017-09-12T04:15:59.571Z,14.6
2017-09-12T04:16:59.877Z,14.5
2017-09-12T04:17:59.542Z,14.42
2017-09-12T04:19:00.168Z,14.32
2017-09-12T04:20:00.161Z,14.28
2017-09-12T04:21:00.157Z,14.27
2017-09-12T04:22:00.136Z,14.16
2017-09-12T04:23:00.121Z,14.12
2017-09-12T04:23:59.783Z,13.99
2017-09-12T04:24:59.771Z,13.94
2017-09-12T04:25:59.749Z,13.94
2017-09-12T04:26:59.762Z,13.87
2017-09-12T04:28:00.044Z,13.81
2017-09-12T04:29:00.049Z,13.83
2017-09-12T04:30:00.037Z,13.84
2017-09-12T04:30:59.359Z,13.83
2017-09-12T04:31:59.341Z,13.79
2017-09-12T04:32:59.657Z,13.84
2017-09-12T04:33:59.647Z,13.83
2017-09-12T04:34:59.627Z,13.77
2017-09-12T04:35:59.611Z,13.81
2017-09-12T04:36:59.914Z,13.81
2017-09-12T04:37:59.258Z,13.87
2017-09-12T04:38:59.561Z,13.89
2017-09-12T04:39:59.551Z,13.83
2017-09-12T04:40:59.567Z,13.71
2017-09-12T04:41:59.843Z,13.67
2017-09-12T04:42:59.502Z,13.81
2017-09-12T04:43:59.168Z,13.71
2017-09-12T04:44:59.799Z,13.71
2017-09-12T04:45:59.461Z,13.71
2017-09-12T04:46:59.127Z,13.69
2017-09-12T04:47:59.760Z,13.77
2017-09-12T04:48:59.742Z,13.73
2017-09-12T04:49:59.723Z,13.81
2017-09-12T04:50:59.712Z,13.76
2017-09-12T04:51:59.390Z,13.81
2017-09-12T04:52:59.403Z,13.79
2017-09-12T04:53:59.358Z,13.79
2017-09-12T04:54:59.659Z,13.81
2017-09-12T04:55:59.321Z,13.84
2017-09-12T04:56:59.654Z,13.84
2017-09-12T04:57:59.613Z,13.81
2017-09-12T04:58:58.957Z,13.79
2017-09-12T04:59:59.284Z,13.8
2017-09-12T05:00:59.574Z,13.8
2017-09-12T05:01:59.248Z,13.84
2017-09-12T05:02:59.235Z,13.83
2017-09-12T05:03:59.215Z,13.88
2017-09-12T05:04:59.195Z,13.81
2017-09-12T05:05:59.496Z,13.84
2017-09-12T05:06:59.158Z,13.88
2017-09-12T05:07:59.141Z,13.8
2017-09-12T05:08:59.455Z,13.8
2017-09-12T05:09:59.114Z,13.8
2017-09-12T05:10:59.105Z,13.79
2017-09-12T05:11:59.086Z,13.83
2017-09-12T05:12:59.069Z,13.76
2017-09-12T05:13:59.057Z,13.71
2017-09-12T05:14:59.371Z,13.71
2017-09-12T05:15:59.033Z,13.67
2017-09-12T05:16:59.013Z,13.73
2017-09-12T05:17:59.000Z,13.67
2017-09-12T05:18:58.666Z,13.69
2017-09-12T05:19:58.970Z,13.69
2017-09-12T05:20:59.280Z,13.69
2017-09-12T05:21:59.263Z,13.74
2017-09-12T05:22:58.925Z,13.67
2017-09-12T05:23:58.911Z,13.7
2017-09-12T05:24:59.221Z,13.65
2017-09-12T05:25:58.885Z,13.62
2017-09-12T05:26:58.866Z,13.77
2017-09-12T05:27:59.178Z,13.67
2017-09-12T05:28:58.515Z,13.61
2017-09-12T05:29:59.142Z,13.59
2017-09-12T05:30:58.816Z,13.58
2017-09-12T05:31:58.790Z,13.59
2017-09-12T05:32:59.097Z,13.62
2017-09-12T05:33:59.105Z,13.59
2017-09-12T05:34:59.087Z,13.69
2017-09-12T05:35:58.419Z,13.59
2017-09-12T05:36:58.732Z,13.62
2017-09-12T05:37:58.914Z,13.58
2017-09-12T05:38:59.034Z,13.65
2017-09-12T05:39:59.008Z,13.62
2017-09-12T05:40:58.669Z,13.58
2017-09-12T05:41:58.650Z,13.56
2017-09-12T05:42:58.319Z,13.59
2017-09-12T05:43:58.647Z,13.63
2017-09-12T05:44:58.286Z,13.54
2017-09-12T05:45:58.600Z,13.61
2017-09-12T05:46:58.571Z,13.56
2017-09-12T05:47:58.247Z,13.59
2017-09-12T05:48:58.543Z,13.61
2017-09-12T05:49:58.852Z,13.55
2017-09-12T05:50:58.839Z,13.61
2017-09-12T05:51:58.506Z,13.59
2017-09-12T05:52:58.808Z,13.67
2017-09-12T05:53:58.795Z,13.58
2017-09-12T05:54:58.147Z,13.58
2017-09-12T05:55:58.445Z,13.63
2017-09-12T05:56:58.117Z,13.54
2017-09-12T05:57:58.417Z,13.55
2017-09-12T05:58:58.410Z,13.63
2017-09-12T05:59:58.399Z,13.56
2017-09-12T06:00:58.376Z,13.62
2017-09-12T06:01:58.364Z,13.61
2017-09-12T06:02:58.023Z,13.63
2017-09-12T06:03:58.008Z,13.65
2017-09-12T06:04:58.316Z,13.63
2017-09-12T06:05:58.301Z,13.76
2017-09-12T06:06:58.608Z,13.67
2017-09-12T06:07:58.275Z,13.71
2017-09-12T06:08:57.930Z,13.7
2017-09-12T06:09:58.559Z,13.69
2017-09-12T06:10:58.553Z,13.81
2017-09-12T06:11:58.216Z,13.79
2017-09-12T06:12:58.201Z,13.76
2017-09-12T06:13:58.506Z,13.84
2017-09-12T06:14:58.493Z,13.89
2017-09-12T06:15:58.160Z,13.81
2017-09-12T06:16:58.151Z,13.88
2017-09-12T06:17:57.804Z,13.94
2017-09-12T06:18:58.434Z,13.92
2017-09-12T06:19:58.418Z,13.99
2017-09-12T06:20:58.408Z,14.02
2017-09-12T06:21:58.392Z,14.07
2017-09-12T06:22:58.063Z,14.13
2017-09-12T06:23:58.367Z,14.09
2017-09-12T06:24:58.394Z,14.02
2017-09-12T06:25:58.341Z,14.14
2017-09-12T06:26:58.333Z,14.09
2017-09-12T06:27:57.990Z,14.1
2017-09-12T06:28:58.328Z,14.12
2017-09-12T06:29:57.955Z,14.1
2017-09-12T06:30:57.637Z,14.12
2017-09-12T06:31:57.933Z,14.07
2017-09-12T06:32:57.917Z,14.06
2017-09-12T06:33:57.909Z,14.1
2017-09-12T06:34:58.212Z,14.1
2017-09-12T06:35:58.226Z,14.04
2017-09-12T06:36:57.864Z,14.07
2017-09-12T06:37:57.856Z,14.04
2017-09-12T06:38:57.863Z,13.99
2017-09-12T06:39:57.504Z,13.99
2017-09-12T06:40:58.121Z,14.06
2017-09-12T06:41:57.794Z,14.02
2017-09-12T06:42:57.780Z,14.1
2017-09-12T06:43:57.770Z,14.06
2017-09-12T06:44:57.750Z,14.06
2017-09-12T06:45:57.416Z,14.07
2017-09-12T06:46:57.402Z,14.01
2017-09-12T06:47:57.391Z,13.99
2017-09-12T06:48:57.706Z,14.07
2017-09-12T06:49:57.356Z,14.04
2017-09-12T06:50:57.683Z,14.1
2017-09-12T06:51:57.653Z,14.09
2017-09-12T06:52:57.645Z,14.13
2017-09-12T06:53:57.629Z,14.12
2017-09-12T06:54:57.615Z,14.1
2017-09-12T06:55:57.279Z,14.1
2017-09-12T06:56:57.587Z,14.16
2017-09-12T06:57:57.897Z,14.12
2017-09-12T06:58:57.556Z,14.24
2017-09-12T06:59:57.219Z,14.2
2017-09-12T07:00:57.528Z,14.27
2017-09-12T07:01:57.511Z,14.31
2017-09-12T07:02:57.822Z,14.29
2017-09-12T07:03:57.808Z,14.35
2017-09-12T07:04:57.149Z,14.35
2017-09-12T07:05:57.477Z,14.47
2017-09-12T07:06:57.443Z,14.49
2017-09-12T07:07:57.766Z,14.56
2017-09-12T07:08:57.418Z,14.53
2017-09-12T07:09:57.086Z,14.54
2017-09-12T07:10:57.389Z,14.62
2017-09-12T07:11:57.058Z,14.75
2017-09-12T07:12:57.369Z,14.78
2017-09-12T07:13:57.698Z,14.67
2017-09-12T07:14:57.662Z,14.8
2017-09-12T07:15:57.373Z,14.8
2017-09-12T07:16:57.310Z,14.98
2017-09-12T07:17:56.982Z,14.99
2017-09-12T07:18:57.283Z,14.99
2017-09-12T07:19:57.608Z,15.03
2017-09-12T07:20:57.256Z,14.99
2017-09-12T07:21:56.926Z,15.09
2017-09-12T07:22:57.564Z,15.06
2017-09-12T07:23:56.896Z,15.08
2017-09-12T07:24:57.528Z,15.12
2017-09-12T07:25:57.514Z,15.09
2017-09-12T07:26:57.181Z,15.09
2017-09-12T07:27:56.846Z,15.11
2017-09-12T07:28:56.832Z,15.13
2017-09-12T07:29:57.149Z,15.17
2017-09-12T07:30:57.464Z,15.17
2017-09-12T07:31:57.112Z,15.17
2017-09-12T07:32:57.103Z,15.24
2017-09-12T07:33:57.096Z,15.11
2017-09-12T07:34:57.077Z,15.08
2017-09-12T07:35:57.069Z,15.11
2017-09-12T07:36:57.055Z,15.11
2017-09-12T07:37:57.240Z,15.15
2017-09-12T07:38:57.349Z,15.11
2017-09-12T07:39:57.330Z,15.13
2017-09-12T07:40:57.316Z,15.12
2017-09-12T07:41:57.305Z,15.09
2017-09-12T07:42:57.293Z,15.08
2017-09-12T07:43:56.636Z,15.06
2017-09-12T07:44:56.626Z,15.19
2017-09-12T07:45:56.931Z,15.09
2017-09-12T07:46:57.242Z,15.17
2017-09-12T07:47:56.904Z,15.21
2017-09-12T07:48:56.927Z,15.17
2017-09-12T07:49:57.200Z,15.31
2017-09-12T07:50:57.193Z,15.28
2017-09-12T07:51:57.174Z,15.28
2017-09-12T07:52:56.849Z,15.33
2017-09-12T07:53:57.158Z,15.31
2017-09-12T07:54:57.135Z,15.41
2017-09-12T07:55:56.485Z,15.39
2017-09-12T07:56:57.111Z,15.42
2017-09-12T07:57:56.778Z,15.48
2017-09-12T07:58:56.769Z,15.43
2017-09-12T07:59:56.761Z,15.45
2017-09-12T08:00:56.421Z,15.43
2017-09-12T08:01:56.728Z,15.45
2017-09-12T08:02:56.398Z,15.42
2017-09-12T08:03:57.055Z,15.48
2017-09-12T08:04:56.374Z,15.45
2017-09-12T08:05:56.676Z,15.42
2017-09-12T08:06:56.346Z,15.45
2017-09-12T08:07:56.651Z,15.42
2017-09-12T08:08:56.971Z,15.49
2017-09-12T08:09:56.628Z,15.54
2017-09-12T08:10:56.625Z,15.63
2017-09-12T08:11:56.925Z,15.64
2017-09-12T08:12:56.915Z,16.03
2017-09-12T08:13:56.576Z,16.18
2017-09-12T08:14:56.245Z,16.26
2017-09-12T08:15:56.228Z,16.34
2017-09-12T08:16:56.220Z,16.37
2017-09-12T08:17:56.529Z,16.23
2017-09-12T08:18:56.841Z,16.18
2017-09-12T08:19:56.824Z,16.2
2017-09-12T08:20:56.494Z,16.23
2017-09-12T08:21:56.488Z,16.18
2017-09-12T08:22:56.470Z,16.25
2017-09-12T08:23:56.461Z,16.27
2017-09-12T08:24:56.445Z,16.45
2017-09-12T08:25:56.431Z,16.6
2017-09-12T08:26:56.764Z,16.62
2017-09-12T08:27:56.728Z,16.59
2017-09-12T08:28:56.720Z,16.56
2017-09-12T08:29:56.710Z,16.55
2017-09-12T08:30:56.689Z,16.56
2017-09-12T08:31:56.039Z,16.59
2017-09-12T08:32:56.667Z,16.6
2017-09-12T08:33:56.658Z,16.5
2017-09-12T08:34:55.999Z,16.52
2017-09-12T08:35:56.641Z,16.49
2017-09-12T08:36:56.304Z,16.44
2017-09-12T08:37:56.294Z,16.41
2017-09-12T08:38:55.954Z,16.4
2017-09-12T08:39:55.948Z,16.34
2017-09-12T08:40:56.252Z,16.44
2017-09-12T08:41:56.242Z,16.48
2017-09-12T08:42:56.602Z,16.53
2017-09-12T08:43:56.224Z,16.58
2017-09-12T08:44:56.213Z,16.58
2017-09-12T08:45:56.202Z,16.6
2017-09-12T08:46:56.196Z,16.59
2017-09-12T08:47:56.175Z,16.58
2017-09-12T08:48:56.160Z,16.6
2017-09-12T08:49:55.834Z,16.63
2017-09-12T08:50:56.142Z,16.71
2017-09-12T08:51:56.127Z,16.71
2017-09-12T08:52:55.801Z,16.7
2017-09-12T08:53:56.431Z,16.71
2017-09-12T08:54:56.093Z,16.77
2017-09-12T08:55:56.085Z,16.7
2017-09-12T08:56:56.072Z,16.7
2017-09-12T08:57:56.060Z,16.7
2017-09-12T08:58:55.726Z,16.74
2017-09-12T08:59:55.723Z,16.78
2017-09-12T09:00:55.705Z,16.75
2017-09-12T09:01:56.022Z,16.89
2017-09-12T09:02:56.326Z,16.92
2017-09-12T09:03:55.672Z,16.9
2017-09-12T09:04:56.300Z,16.93
2017-09-12T09:05:55.968Z,16.81
2017-09-12T09:06:55.648Z,16.81
2017-09-12T09:07:55.626Z,16.7
2017-09-12T09:08:55.941Z,16.7
2017-09-12T09:09:55.927Z,16.58
2017-09-12T09:10:56.240Z,16.59
2017-09-12T09:11:56.219Z,16.55
2017-09-12T09:12:55.940Z,16.49
2017-09-12T09:13:55.878Z,16.49
2017-09-12T09:14:55.866Z,16.33
2017-09-12T09:15:55.855Z,16.27
2017-09-12T09:16:56.167Z,16.44
2017-09-12T09:17:55.832Z,16.44
2017-09-12T09:18:55.817Z,16.44
2017-09-12T09:19:56.128Z,16.55
2017-09-12T09:20:55.797Z,16.6
2017-09-12T09:21:56.103Z,16.71
2017-09-12T09:22:55.777Z,16.75
2017-09-12T09:23:56.094Z,16.85
2017-09-12T09:24:55.448Z,16.86
2017-09-12T09:25:55.736Z,16.95
2017-09-12T09:26:56.051Z,16.95
2017-09-12T09:27:56.092Z,16.92
2017-09-12T09:28:55.709Z,16.95
2017-09-12T09:29:55.705Z,16.88
2017-09-12T09:30:56.000Z,16.86
2017-09-12T09:31:55.344Z,16.83
2017-09-12T09:32:55.657Z,16.71
2017-09-12T09:33:55.652Z,16.7
2017-09-12T09:34:55.652Z,16.65
2017-09-12T09:35:55.620Z,16.59
2017-09-12T09:36:55.939Z,16.62
2017-09-12T09:37:55.481Z,16.59
2017-09-12T09:38:55.591Z,16.56
2017-09-12T09:39:55.900Z,16.7
2017-09-12T09:40:55.614Z,16.68
2017-09-12T09:41:55.235Z,16.75
2017-09-12T09:42:55.864Z,16.88
2017-09-12T09:43:55.218Z,16.85
2017-09-12T09:44:55.523Z,16.73
2017-09-12T09:45:55.830Z,16.73
2017-09-12T09:46:55.538Z,16.77
2017-09-12T09:47:55.485Z,16.78
2017-09-12T09:48:55.517Z,16.95
2017-09-12T09:49:55.792Z,17.06
2017-09-12T09:50:55.137Z,17.03
2017-09-12T09:51:55.447Z,17.1
2017-09-12T09:52:55.108Z,17.11
2017-09-12T09:53:55.419Z,17.17
2017-09-12T09:54:55.421Z,17.28
2017-09-12T09:55:55.392Z,17.44
2017-09-12T09:56:55.390Z,17.41
2017-09-12T09:57:55.055Z,17.53
2017-09-12T09:58:55.365Z,17.53
2017-09-12T09:59:55.675Z,17.48
2017-09-12T10:00:55.708Z,17.4
2017-09-12T10:01:55.009Z,17.46
2017-09-12T10:02:55.323Z,17.25
2017-09-12T10:03:55.309Z,17.13
2017-09-12T10:04:55.314Z,17.13
2017-09-12T10:05:55.614Z,17.11
2017-09-12T10:06:55.276Z,17.2
2017-09-12T10:07:55.588Z,17.18
2017-09-12T10:08:54.929Z,17.23
2017-09-12T10:09:55.238Z,17.4
2017-09-12T10:10:55.229Z,17.38
2017-09-12T10:11:55.540Z,17.48
2017-09-12T10:12:54.894Z,17.47
2017-09-12T10:13:55.531Z,17.48
2017-09-12T10:14:55.189Z,17.48
2017-09-12T10:15:54.859Z,17.36
2017-09-12T10:16:55.172Z,17.3
2017-09-12T10:17:55.167Z,17.14
2017-09-12T10:18:55.147Z,17.11
2017-09-12T10:19:55.136Z,17
2017-09-12T10:20:55.461Z,16.96
2017-09-12T10:21:55.434Z,16.92
2017-09-12T10:22:55.455Z,16.95
2017-09-12T10:23:55.616Z,16.99
2017-09-12T10:24:55.081Z,16.9
2017-09-12T10:25:55.066Z,16.96
2017-09-12T10:26:54.739Z,16.98
2017-09-12T10:27:55.363Z,17.06
2017-09-12T10:28:55.364Z,17
2017-09-12T10:29:54.725Z,17
2017-09-12T10:30:55.333Z,16.96
2017-09-12T10:31:55.324Z,16.93
2017-09-12T10:32:54.990Z,17.06
2017-09-12T10:33:54.979Z,17.13
2017-09-12T10:34:54.963Z,17.29
2017-09-12T10:35:54.635Z,17.4
2017-09-12T10:36:54.945Z,17.47
2017-09-12T10:37:54.937Z,17.57
2017-09-12T10:38:54.927Z,17.64
2017-09-12T10:39:54.911Z,17.79
2017-09-12T10:40:54.913Z,17.89
2017-09-12T10:41:55.215Z,17.97
2017-09-12T10:42:54.885Z,18.12
2017-09-12T10:43:55.203Z,18.12
2017-09-12T10:44:55.183Z,18.27
2017-09-12T10:45:54.857Z,18.31
2017-09-12T10:46:55.165Z,18.4
2017-09-12T10:47:55.153Z,18.42
2017-09-12T10:48:54.827Z,18.37
2017-09-12T10:49:55.145Z,18.5
2017-09-12T10:50:54.809Z,18.68
2017-09-12T10:51:54.790Z,18.61
2017-09-12T10:52:55.107Z,18.58
2017-09-12T10:53:55.102Z,18.68
2017-09-12T10:54:54.772Z,18.57
2017-09-12T10:55:54.761Z,18.44
2017-09-12T10:56:54.431Z,18.52
2017-09-12T10:57:54.737Z,18.49
2017-09-12T10:58:55.056Z,18.58
2017-09-12T10:59:55.041Z,18.68
2017-09-12T11:01:21.877Z,18.76
2017-09-12T11:01:54.737Z,18.64
2017-09-12T11:02:54.380Z,18.67
2017-09-12T11:03:55.012Z,18.77
2017-09-12T11:04:54.677Z,18.95
2017-09-12T11:05:54.999Z,19.06
2017-09-12T11:06:54.990Z,19.25
2017-09-12T11:07:54.654Z,19.31
2017-09-12T11:08:54.646Z,19.42
2017-09-12T11:09:54.637Z,19.36
2017-09-12T11:10:54.631Z,19.24
2017-09-12T11:11:54.325Z,19.18
2017-09-12T11:12:54.618Z,19.24
2017-09-12T11:13:54.934Z,19.36
2017-09-12T11:14:54.930Z,19.46
2017-09-12T11:15:54.917Z,19.69
2017-09-12T11:16:54.595Z,20
2017-09-12T11:17:54.588Z,20.16
2017-09-12T11:18:54.262Z,20.28
2017-09-12T11:19:54.262Z,20.23
2017-09-12T11:20:54.571Z,20.06
2017-09-12T11:21:54.567Z,19.78
2017-09-12T11:22:54.257Z,19.91
2017-09-12T11:23:54.554Z,19.91
2017-09-12T11:24:54.554Z,19.91
2017-09-12T11:25:54.550Z,19.73
2017-09-12T11:26:54.547Z,19.65
2017-09-12T11:27:54.542Z,19.4
2017-09-12T11:28:54.863Z,19.38
2017-09-12T11:29:54.856Z,19.2
2017-09-12T11:30:54.845Z,19.11
2017-09-12T11:31:54.523Z,18.95
2017-09-12T11:32:54.843Z,18.73
2017-09-12T11:33:54.502Z,18.65
2017-09-12T11:34:54.828Z,18.46
2017-09-12T11:35:54.493Z,18.52
2017-09-12T11:36:54.812Z,18.24
2017-09-12T11:37:55.007Z,18.15
2017-09-12T11:38:54.159Z,17.87
2017-09-12T11:39:54.475Z,17.64
2017-09-12T11:40:54.471Z,17.38
2017-09-12T11:41:54.459Z,17.11
2017-09-12T11:42:54.122Z,17.41
2017-09-12T11:43:54.764Z,17.54
2017-09-12T11:44:54.450Z,17.53
2017-09-12T11:45:54.423Z,18.13
2017-09-12T11:46:54.414Z,18.43
2017-09-12T11:47:54.403Z,18.83
2017-09-12T11:48:54.397Z,19.14
2017-09-12T11:49:54.398Z,19.31
2017-09-12T11:50:54.390Z,19.13
2017-09-12T11:51:54.699Z,18.95
2017-09-12T11:52:54.699Z,18.61
2017-09-12T11:53:54.372Z,18.44
2017-09-12T11:54:54.362Z,18.25
2017-09-12T11:55:54.358Z,18.18
2017-09-12T11:56:54.348Z,18.17
2017-09-12T11:57:54.348Z,18.02
2017-09-12T11:58:54.658Z,17.82
2017-09-12T11:59:54.331Z,17.66
2017-09-12T12:00:54.334Z,17.44
2017-09-12T12:01:54.639Z,17.48
2017-09-12T12:02:54.626Z,17.4
2017-09-12T12:03:54.627Z,17.38
2017-09-12T12:04:54.625Z,17.35
2017-09-12T12:05:54.610Z,17.95
2017-09-12T12:06:54.280Z,18.62
2017-09-12T12:07:54.279Z,19.25
2017-09-12T12:08:54.265Z,19.84
2017-09-12T12:09:54.572Z,20.38
2017-09-12T12:10:54.245Z,20.95
2017-09-12T12:11:54.241Z,21.05
2017-09-12T12:12:54.244Z,20.96
2017-09-12T12:13:54.551Z,20.64
2017-09-12T12:14:53.904Z,20.3
2017-09-12T12:15:54.536Z,20.03
2017-09-12T12:16:54.215Z,19.6
2017-09-12T12:17:54.533Z,19.28
2017-09-12T12:18:53.884Z,19.01
2017-09-12T12:19:53.874Z,18.86
2017-09-12T12:20:53.871Z,18.73
2017-09-12T12:21:54.188Z,18.59
2017-09-12T12:22:53.858Z,18.44
2017-09-12T12:23:53.850Z,19.06
2017-09-12T12:24:53.845Z,19.57
2017-09-12T12:25:54.499Z,20.15
2017-09-12T12:26:53.836Z,20.69
2017-09-12T12:27:54.476Z,21.24
2017-09-12T12:28:54.143Z,21.75
2017-09-12T12:29:54.138Z,21.88
2017-09-12T12:30:54.461Z,22.1
2017-09-12T12:31:53.807Z,22.5
2017-09-12T12:32:54.446Z,22.65
2017-09-12T12:33:54.443Z,22.92
2017-09-12T12:34:54.436Z,22.92
2017-09-12T12:35:53.791Z,22.99
2017-09-12T12:36:54.121Z,22.53
2017-09-12T12:37:53.793Z,22.29
2017-09-12T12:38:54.103Z,22.16
2017-09-12T12:39:53.786Z,22.09
2017-09-12T12:40:53.784Z,22.31
2017-09-12T12:41:54.102Z,21.76
2017-09-12T12:42:54.102Z,21.59
2017-09-12T12:43:54.420Z,22.12
2017-09-12T12:44:54.429Z,22.59
2017-09-12T12:45:54.425Z,22.86
2017-09-12T12:46:54.101Z,23.19
2017-09-12T12:47:54.097Z,23.58
2017-09-12T12:48:54.092Z,23.26
2017-09-12T12:49:54.411Z,23.11
2017-09-12T12:50:54.411Z,22.62
2017-09-12T12:51:54.407Z,22.35
2017-09-12T12:52:53.770Z,22.09
2017-09-12T12:53:54.084Z,21.88
2017-09-12T12:54:54.093Z,21.29